Time;durP1;ratioP1;P1;durP2;ratioP2;P2;SDS_P1;SDS_P2;PMS_P1;PMS_P2;Temp;Humidity;BMP_temperature;BMP_pressure;BME280_temperature;BME280_humidity;BME280_pressure;Samples;Min_cycle;Max_cycle;Signal;HPM_P1;HPM_P2
2023/08/30 00:02:00;;;;;;;3.53;2.20;;;16.00;99.90;;;;;;5033339;28;20052;-53
2023/08/30 00:04:27;;;;;;;2.67;1.83;;;15.90;99.90;;;;;;5033260;28;20037;-58
2023/08/30 00:06:54;;;;;;;3.58;2.20;;;15.80;99.90;;;;;;5033113;28;20037;-56
2023/08/30 00:09:20;;;;;;;4.15;2.47;;;15.60;99.90;;;;;;5023111;28;20400;-56
2023/08/30 00:11:47;;;;;;;5.18;2.90;;;15.50;99.90;;;;;;5021636;28;20041;-58
2023/08/30 00:14:14;;;;;;;4.57;2.60;;;15.40;99.90;;;;;;5019524;28;20050;-55
2023/08/30 00:16:41;;;;;;;7.78;2.92;;;15.30;99.90;;;;;;5019234;28;20132;-52
2023/08/30 00:19:08;;;;;;;5.40;3.00;;;15.20;99.90;;;;;;5020228;28;20041;-57
2023/08/30 00:21:35;;;;;;;5.18;2.85;;;15.10;99.90;;;;;;5018253;28;20034;-57
2023/08/30 00:24:02;;;;;;;6.32;2.90;;;15.00;99.90;;;;;;5030337;28;20041;-57
2023/08/30 00:26:29;;;;;;;6.88;3.40;;;14.90;99.90;;;;;;5033146;28;20045;-53
2023/08/30 00:28:56;;;;;;;6.80;3.30;;;14.80;99.90;;;;;;5031652;28;20149;-58
2023/08/30 00:31:23;;;;;;;5.78;2.92;;;14.70;99.90;;;;;;5033144;28;20042;-61
2023/08/30 00:33:50;;;;;;;6.18;2.60;;;14.80;99.90;;;;;;5032845;28;20521;-56
2023/08/30 00:36:18;;;;;;;6.05;3.15;;;14.70;99.90;;;;;;5031413;28;20103;-50
2023/08/30 00:38:45;;;;;;;5.65;2.88;;;14.70;99.90;;;;;;5032653;28;20071;-52
2023/08/30 00:41:11;;;;;;;5.97;2.45;;;14.70;99.90;;;;;;5032832;28;20037;-58
2023/08/30 00:43:38;;;;;;;4.25;2.45;;;14.70;99.90;;;;;;5018086;28;20413;-57
2023/08/30 00:46:05;;;;;;;5.72;2.80;;;14.70;99.90;;;;;;5032517;28;20425;-55
2023/08/30 00:48:32;;;;;;;5.57;2.65;;;14.70;99.90;;;;;;5032714;28;20057;-53
2023/08/30 00:50:59;;;;;;;5.07;2.25;;;14.70;99.90;;;;;;5031152;28;20049;-62
2023/08/30 00:53:25;;;;;;;4.53;2.30;;;14.70;99.90;;;;;;5032859;28;20069;-54
2023/08/30 00:55:52;;;;;;;4.93;1.92;;;14.70;99.90;;;;;;5031321;28;20061;-52
2023/08/30 00:58:19;;;;;;;4.43;2.28;;;14.70;99.90;;;;;;5032337;28;20477;-56
2023/08/30 01:00:47;;;;;;;4.97;2.38;;;14.70;99.90;;;;;;5032731;28;20034;-53
2023/08/30 01:03:14;;;;;;;6.32;2.38;;;14.70;99.90;;;;;;5032469;28;20099;-55
2023/08/30 01:05:41;;;;;;;8.32;2.60;;;14.70;99.90;;;;;;5031240;28;20069;-55
2023/08/30 01:08:11;;;;;;;7.05;2.42;;;14.70;99.90;;;;;;5030285;28;20046;-54
2023/08/30 01:10:37;;;;;;;4.60;1.98;;;14.70;99.90;;;;;;5032811;28;20046;-59
2023/08/30 01:13:04;;;;;;;7.32;2.40;;;14.70;99.90;;;;;;5031472;28;20038;-57
2023/08/30 01:15:32;;;;;;;4.97;2.25;;;14.70;99.90;;;;;;5032741;28;20042;-59
2023/08/30 01:17:59;;;;;;;6.80;2.17;;;14.80;99.90;;;;;;5032443;28;20050;-55
2023/08/30 01:20:26;;;;;;;5.72;2.20;;;14.80;99.90;;;;;;5031098;28;20373;-54
2023/08/30 01:22:53;;;;;;;5.10;2.45;;;14.80;99.90;;;;;;5032572;28;20049;-60
2023/08/30 01:25:21;;;;;;;4.25;2.28;;;14.80;99.90;;;;;;5032271;28;20444;-56
2023/08/30 01:27:48;;;;;;;6.75;2.40;;;14.80;99.90;;;;;;5032370;28;20495;-56
2023/08/30 01:30:15;;;;;;;6.78;2.70;;;14.70;99.90;;;;;;5032327;28;20056;-58
2023/08/30 01:32:42;;;;;;;4.13;2.50;;;14.80;99.90;;;;;;5032000;28;20641;-57
2023/08/30 01:35:09;;;;;;;4.43;2.30;;;14.80;99.90;;;;;;5033033;28;20042;-54
2023/08/30 01:37:35;;;;;;;5.53;2.25;;;14.90;99.90;;;;;;5035645;28;20037;-49
2023/08/30 01:40:04;;;;;;;6.95;2.70;;;14.80;99.90;;;;;;5036026;28;20045;-53
2023/08/30 01:42:31;;;;;;;4.53;2.30;;;14.90;99.90;;;;;;5035558;28;20073;-49
2023/08/30 01:44:58;;;;;;;5.13;2.67;;;14.80;99.90;;;;;;5036060;28;20048;-52
2023/08/30 01:47:24;;;;;;;5.57;2.53;;;14.80;99.90;;;;;;5034250;28;20144;-54
2023/08/30 01:49:51;;;;;;;7.70;2.83;;;14.80;99.90;;;;;;5035810;28;20045;-57
2023/08/30 01:52:18;;;;;;;6.85;2.65;;;14.80;99.90;;;;;;5034296;28;20061;-54
2023/08/30 01:54:45;;;;;;;6.47;2.80;;;14.70;99.90;;;;;;5034374;28;20132;-57
2023/08/30 01:57:11;;;;;;;6.63;2.97;;;14.70;99.90;;;;;;5035449;28;20049;-56
2023/08/30 01:59:38;;;;;;;4.57;2.65;;;14.50;99.90;;;;;;5034084;28;20132;-56
2023/08/30 02:02:05;;;;;;;7.32;2.83;;;14.50;99.90;;;;;;5033922;28;20050;-57
2023/08/30 02:04:32;;;;;;;5.85;2.72;;;14.60;99.90;;;;;;5035555;28;20045;-54
2023/08/30 02:06:59;;;;;;;4.18;2.20;;;14.60;99.90;;;;;;5035439;28;20045;-57
2023/08/30 02:09:25;;;;;;;6.30;2.58;;;14.60;99.90;;;;;;5033973;28;20073;-56
2023/08/30 02:11:53;;;;;;;4.30;2.47;;;14.60;99.90;;;;;;5034827;28;20476;-56
2023/08/30 02:14:19;;;;;;;6.05;2.67;;;14.50;99.90;;;;;;5029301;28;20420;-59
2023/08/30 02:16:46;;;;;;;8.77;2.88;;;14.50;99.90;;;;;;5027769;28;20136;-49
2023/08/30 02:19:16;;;;;;;4.07;2.17;;;14.40;99.90;;;;;;5021117;28;20500;-57
2023/08/30 02:21:43;;;;;;;5.78;2.50;;;14.30;99.90;;;;;;5029366;28;20483;-56
2023/08/30 02:24:10;;;;;;;5.10;2.83;;;14.20;99.90;;;;;;5034763;28;20113;-60
2023/08/30 02:26:37;;;;;;;7.85;2.78;;;14.10;99.90;;;;;;5035009;28;20041;-56
2023/08/30 02:29:06;;;;;;;5.40;2.45;;;14.10;99.90;;;;;;5035025;28;20059;-56
2023/08/30 02:31:32;;;;;;;5.35;2.85;;;14.00;99.90;;;;;;5033882;28;20384;-58
2023/08/30 02:33:59;;;;;;;6.95;2.90;;;14.00;99.90;;;;;;5034923;28;20045;-57
2023/08/30 02:36:26;;;;;;;8.55;3.08;;;14.00;99.90;;;;;;5034053;28;20050;-56
2023/08/30 02:38:55;;;;;;;8.07;3.17;;;14.00;99.90;;;;;;5033635;28;20049;-58
2023/08/30 02:41:22;;;;;;;5.50;2.70;;;13.90;99.90;;;;;;5033733;28;20033;-57
2023/08/30 02:43:49;;;;;;;5.85;2.75;;;14.00;99.90;;;;;;5033484;28;20042;-58
2023/08/30 02:46:15;;;;;;;7.55;3.03;;;13.90;99.90;;;;;;5034480;28;20065;-55
2023/08/30 02:48:44;;;;;;;6.75;3.03;;;13.90;99.90;;;;;;5033382;28;20107;-55
2023/08/30 02:51:11;;;;;;;7.68;3.08;;;13.90;99.90;;;;;;5033381;28;20132;-58
2023/08/30 02:53:37;;;;;;;9.52;2.97;;;13.80;99.90;;;;;;5032693;28;20050;-55
2023/08/30 02:56:04;;;;;;;6.78;3.00;;;13.80;99.90;;;;;;5034586;28;20045;-57
2023/08/30 02:58:31;;;;;;;7.43;3.08;;;13.80;99.90;;;;;;5034482;28;20051;-55
2023/08/30 03:01:00;;;;;;;9.13;3.15;;;13.80;99.90;;;;;;5027354;28;20527;-57
2023/08/30 03:03:28;;;;;;;7.22;3.60;;;13.80;99.90;;;;;;5032956;28;20046;-53
2023/08/30 03:05:55;;;;;;;7.57;3.13;;;13.80;99.90;;;;;;5034532;28;20096;-58
2023/08/30 03:08:23;;;;;;;6.82;3.17;;;13.80;99.90;;;;;;5033044;28;20180;-55
2023/08/30 03:10:50;;;;;;;7.13;3.17;;;13.70;99.90;;;;;;5033314;28;20072;-58
2023/08/30 03:13:17;;;;;;;8.85;3.53;;;13.70;99.90;;;;;;5032774;28;20053;-56
2023/08/30 03:15:44;;;;;;;6.60;3.10;;;13.60;99.90;;;;;;5032894;28;20053;-56
2023/08/30 03:18:11;;;;;;;6.68;3.42;;;13.60;99.90;;;;;;5033880;28;20045;-54
2023/08/30 03:20:39;;;;;;;8.55;3.40;;;13.60;99.90;;;;;;5033524;28;20046;-60
2023/08/30 03:23:06;;;;;;;8.00;3.60;;;13.60;99.90;;;;;;5032706;28;20041;-57
2023/08/30 03:25:33;;;;;;;8.85;4.03;;;13.60;99.90;;;;;;5032752;28;20104;-53
2023/08/30 03:28:00;;;;;;;7.97;3.60;;;13.60;99.90;;;;;;5032773;28;20046;-54
2023/08/30 03:30:27;;;;;;;7.93;3.50;;;13.60;99.90;;;;;;5034014;28;20485;-57
2023/08/30 03:32:54;;;;;;;6.18;3.45;;;13.60;99.90;;;;;;5027961;28;20060;-56
2023/08/30 03:35:21;;;;;;;9.05;3.33;;;13.50;99.90;;;;;;5026238;28;20061;-57
2023/08/30 03:37:49;;;;;;;6.30;3.50;;;13.50;99.90;;;;;;5025354;28;20037;-55
2023/08/30 03:40:16;;;;;;;7.78;3.60;;;13.50;99.90;;;;;;5033726;28;20045;-56
2023/08/30 03:42:43;;;;;;;10.70;3.50;;;13.40;99.90;;;;;;5026380;28;20508;-55
2023/08/30 03:45:10;;;;;;;7.70;3.50;;;13.30;99.90;;;;;;5033681;28;20038;-57
2023/08/30 03:47:37;;;;;;;10.38;3.50;;;13.30;99.90;;;;;;5032318;28;20382;-56
2023/08/30 03:50:04;;;;;;;7.65;3.47;;;13.20;99.90;;;;;;5027021;28;20046;-55
2023/08/30 03:52:33;;;;;;;7.70;3.70;;;13.20;99.90;;;;;;5025684;28;20132;-55
2023/08/30 03:55:00;;;;;;;8.95;4.03;;;13.10;99.90;;;;;;5019268;28;20042;-56
2023/08/30 03:57:28;;;;;;;6.53;3.47;;;13.10;99.90;;;;;;5026881;28;20095;-55
2023/08/30 03:59:54;;;;;;;8.27;4.28;;;13.00;99.90;;;;;;5031553;28;20388;-57
2023/08/30 04:02:21;;;;;;;10.60;4.43;;;13.00;99.90;;;;;;5026814;28;20059;-52
2023/08/30 04:04:48;;;;;;;7.70;3.97;;;13.00;99.90;;;;;;5025275;28;20042;-57
2023/08/30 04:07:15;;;;;;;10.75;3.92;;;12.90;99.90;;;;;;5031936;28;20476;-53
2023/08/30 04:09:42;;;;;;;11.45;4.03;;;12.90;99.90;;;;;;5032202;28;20056;-55
2023/08/30 04:12:08;;;;;;;9.18;4.13;;;12.80;99.90;;;;;;5033043;28;20045;-54
2023/08/30 04:14:35;;;;;;;12.80;3.95;;;12.80;99.90;;;;;;5031842;28;20056;-51
2023/08/30 04:17:02;;;;;;;14.75;4.20;;;12.80;99.90;;;;;;5031601;28;20043;-53
2023/08/30 04:19:29;;;;;;;9.70;3.88;;;12.70;99.90;;;;;;5031441;28;20040;-55
2023/08/30 04:21:56;;;;;;;8.98;3.78;;;12.70;99.90;;;;;;5031585;28;20037;-57
2023/08/30 04:24:22;;;;;;;10.85;4.00;;;12.70;99.90;;;;;;5033010;28;20037;-52
2023/08/30 04:26:51;;;;;;;7.85;4.05;;;12.60;99.90;;;;;;5032651;28;20048;-53
2023/08/30 04:29:18;;;;;;;6.38;3.65;;;12.60;99.90;;;;;;5033036;28;20053;-53
2023/08/30 04:31:45;;;;;;;10.55;4.15;;;12.50;99.90;;;;;;5031289;28;20053;-57
2023/08/30 04:34:12;;;;;;;9.30;3.70;;;12.50;99.90;;;;;;5031490;28;20140;-56
2023/08/30 04:36:39;;;;;;;9.10;3.88;;;12.50;99.90;;;;;;5031128;28;20115;-53
2023/08/30 04:39:06;;;;;;;9.95;4.43;;;12.50;99.90;;;;;;5032430;28;20044;-53
2023/08/30 04:41:33;;;;;;;10.95;4.03;;;12.40;99.90;;;;;;5031205;28;20046;-51
2023/08/30 04:44:00;;;;;;;10.73;5.40;;;12.40;99.90;;;;;;5030193;28;20051;-54
2023/08/30 04:46:28;;;;;;;10.20;4.00;;;12.40;99.90;;;;;;5014512;28;20052;-56
2023/08/30 04:48:55;;;;;;;13.43;4.15;;;12.30;99.90;;;;;;5031583;28;20049;-53
2023/08/30 04:51:22;;;;;;;8.60;4.43;;;12.40;99.90;;;;;;5031067;28;20425;-56
2023/08/30 04:53:50;;;;;;;8.05;3.67;;;12.30;99.90;;;;;;5031266;28;20428;-57
2023/08/30 04:56:18;;;;;;;8.73;3.70;;;12.30;99.90;;;;;;5031295;28;20084;-58
2023/08/30 04:58:45;;;;;;;8.07;3.75;;;12.20;99.90;;;;;;5030853;28;20050;-57
2023/08/30 05:01:15;;;;;;;7.55;4.00;;;12.20;99.90;;;;;;5031199;28;20060;-57
2023/08/30 05:03:46;;;;;;;8.32;4.10;;;12.10;99.90;;;;;;5031154;28;20041;-54
2023/08/30 05:06:16;;;;;;;7.63;4.20;;;12.20;99.90;;;;;;5030998;28;20041;-57
2023/08/30 05:08:43;;;;;;;10.40;4.47;;;12.10;99.90;;;;;;5031050;28;20041;-57
2023/08/30 05:11:10;;;;;;;10.35;4.50;;;12.10;99.90;;;;;;5026150;28;20041;-58
2023/08/30 05:13:38;;;;;;;8.73;4.15;;;12.10;99.90;;;;;;5035397;28;20103;-60
2023/08/30 05:16:04;;;;;;;9.80;4.53;;;12.10;99.90;;;;;;5035047;28;20079;-53
2023/08/30 05:18:32;;;;;;;10.98;5.40;;;12.00;99.90;;;;;;5033930;28;20481;-54
2023/08/30 05:21:03;;;;;;;10.32;4.53;;;12.00;99.90;;;;;;5035349;28;20132;-59
2023/08/30 05:23:30;;;;;;;11.52;4.32;;;12.10;99.90;;;;;;5035003;28;20049;-56
2023/08/30 05:25:58;;;;;;;8.32;3.70;;;12.10;99.90;;;;;;5035287;28;20076;-54
2023/08/30 05:28:24;;;;;;;10.20;4.35;;;12.10;99.90;;;;;;5034895;28;20045;-54
2023/08/30 05:30:51;;;;;;;9.18;4.13;;;12.10;99.90;;;;;;5034916;28;20507;-54
2023/08/30 05:33:29;;;;;;;9.23;4.75;;;12.20;99.90;;;;;;5036308;28;20551;-59
2023/08/30 05:36:26;;;;;;;7.63;4.45;;;12.20;99.90;;;;;;5034929;28;20049;-58
2023/08/30 05:39:12;;;;;;;10.25;4.60;;;12.20;99.90;;;;;;5031628;28;20048;-54
2023/08/30 05:41:45;;;;;;;7.25;4.60;;;12.30;99.90;;;;;;5034923;28;20049;-56
2023/08/30 05:44:13;;;;;;;9.60;4.50;;;12.30;99.90;;;;;;5035918;28;20052;-55
2023/08/30 05:46:40;;;;;;;9.10;4.20;;;12.30;99.90;;;;;;5034764;28;20075;-55
2023/08/30 05:49:07;;;;;;;11.05;4.88;;;12.40;99.90;;;;;;5034422;28;20053;-56
2023/08/30 05:51:34;;;;;;;10.70;4.82;;;12.40;99.90;;;;;;5034248;28;20500;-55
2023/08/30 05:54:02;;;;;;;10.35;4.80;;;12.30;99.90;;;;;;5034424;28;21156;-57
2023/08/30 05:56:29;;;;;;;9.88;4.43;;;12.30;99.90;;;;;;5034507;28;20096;-57
2023/08/30 05:58:55;;;;;;;6.15;4.15;;;12.30;99.90;;;;;;5034172;28;20077;-57
2023/08/30 06:01:23;;;;;;;7.63;4.28;;;12.30;99.90;;;;;;5034289;28;20151;-59
2023/08/30 06:03:49;;;;;;;8.25;4.50;;;12.30;99.90;;;;;;5035387;28;20033;-56
2023/08/30 06:06:16;;;;;;;9.65;3.70;;;12.30;99.90;;;;;;5035431;28;20049;-58
2023/08/30 06:08:43;;;;;;;11.13;3.60;;;12.30;99.90;;;;;;5035468;28;20499;-55
2023/08/30 06:11:10;;;;;;;10.32;3.38;;;12.40;99.90;;;;;;5034639;28;20382;-57
2023/08/30 06:13:37;;;;;;;8.50;3.53;;;12.40;99.90;;;;;;5034137;28;20037;-57
2023/08/30 06:16:04;;;;;;;9.02;3.33;;;12.30;99.90;;;;;;5034074;28;20044;-53
2023/08/30 06:18:32;;;;;;;13.98;4.07;;;12.40;99.90;;;;;;5035171;28;20045;-52
2023/08/30 06:20:58;;;;;;;12.60;3.72;;;12.40;99.90;;;;;;5034753;28;20040;-57
2023/08/30 06:23:25;;;;;;;9.27;3.20;;;12.40;99.90;;;;;;5035368;28;20053;-56
2023/08/30 06:25:52;;;;;;;7.80;2.67;;;12.50;99.90;;;;;;5033967;28;20268;-49
2023/08/30 06:28:19;;;;;;;8.23;3.03;;;12.40;99.90;;;;;;5035097;28;20057;-54
2023/08/30 06:30:46;;;;;;;10.25;3.33;;;12.40;99.90;;;;;;5035127;28;20433;-58
2023/08/30 06:33:12;;;;;;;9.65;2.90;;;12.50;99.90;;;;;;5034094;28;20076;-55
2023/08/30 06:35:40;;;;;;;10.88;3.33;;;12.50;99.90;;;;;;5033460;28;20556;-54
2023/08/30 06:38:07;;;;;;;10.57;3.03;;;12.60;99.90;;;;;;5034679;28;20048;-57
2023/08/30 06:40:34;;;;;;;8.77;3.20;;;12.70;99.90;;;;;;5034571;28;20129;-53
2023/08/30 06:43:01;;;;;;;7.30;2.90;;;12.80;99.90;;;;;;5034818;28;20050;-58
2023/08/30 06:45:28;;;;;;;8.32;3.20;;;12.90;99.90;;;;;;5034861;28;20041;-53
2023/08/30 06:47:55;;;;;;;14.13;4.10;;;13.00;99.90;;;;;;5034591;28;20064;-54
2023/08/30 06:50:22;;;;;;;12.60;3.42;;;13.10;99.90;;;;;;5034981;28;20069;-50
2023/08/30 06:52:48;;;;;;;8.35;3.17;;;13.10;99.90;;;;;;5034431;28;20124;-52
2023/08/30 06:55:15;;;;;;;12.20;3.33;;;13.20;99.90;;;;;;5034517;28;20049;-57
2023/08/30 06:57:42;;;;;;;10.60;2.92;;;13.30;99.90;;;;;;5034496;28;20149;-54
2023/08/30 07:00:09;;;;;;;11.05;3.30;;;13.30;99.90;;;;;;5034321;28;20409;-56
2023/08/30 07:02:36;;;;;;;9.52;3.30;;;13.40;99.90;;;;;;5034446;28;20144;-58
2023/08/30 07:05:04;;;;;;;12.07;3.13;;;13.40;99.90;;;;;;5033457;28;20526;-55
2023/08/30 07:07:31;;;;;;;8.48;3.17;;;13.50;99.90;;;;;;5034134;28;20069;-55
2023/08/30 07:09:58;;;;;;;13.57;3.50;;;13.50;99.90;;;;;;5034498;28;20071;-56
2023/08/30 07:12:25;;;;;;;13.50;3.15;;;13.50;99.90;;;;;;5032864;28;20033;-56
2023/08/30 07:14:51;;;;;;;10.68;3.30;;;13.50;99.90;;;;;;5033135;28;20107;-53
2023/08/30 07:17:18;;;;;;;10.95;3.22;;;13.60;99.90;;;;;;5032672;28;20136;-51
2023/08/30 07:19:45;;;;;;;10.80;3.30;;;13.70;99.90;;;;;;5034035;28;20503;-54
2023/08/30 07:22:12;;;;;;;10.07;2.97;;;13.70;99.90;;;;;;5033115;28;20033;-52
2023/08/30 07:24:39;;;;;;;7.13;2.88;;;13.70;99.90;;;;;;5034076;28;20103;-53
2023/08/30 07:27:05;;;;;;;12.57;3.20;;;13.80;99.90;;;;;;5032421;28;20547;-54
2023/08/30 07:29:32;;;;;;;11.35;3.65;;;13.80;99.90;;;;;;5034159;28;20499;-58
2023/08/30 07:31:59;;;;;;;10.00;2.88;;;13.80;99.90;;;;;;5033832;28;20045;-54
2023/08/30 07:34:26;;;;;;;16.00;3.03;;;13.90;99.90;;;;;;5032910;28;20048;-53
2023/08/30 07:36:53;;;;;;;12.90;3.50;;;14.10;99.90;;;;;;5033743;28;20081;-52
2023/08/30 07:39:19;;;;;;;11.73;3.38;;;14.20;99.90;;;;;;5032441;28;20117;-51
2023/08/30 07:41:46;;;;;;;8.52;2.92;;;14.20;99.90;;;;;;5033801;28;20033;-53
2023/08/30 07:44:13;;;;;;;11.38;3.55;;;14.20;99.90;;;;;;5032616;28;20037;-55
2023/08/30 07:46:40;;;;;;;10.45;3.30;;;14.30;99.90;;;;;;5033719;28;20029;-53
2023/08/30 07:49:06;;;;;;;9.40;2.80;;;14.40;99.90;;;;;;5033351;28;20041;-54
2023/08/30 07:51:33;;;;;;;12.07;3.40;;;14.50;99.90;;;;;;5033307;28;20042;-56
2023/08/30 07:54:00;;;;;;;9.25;3.10;;;14.70;99.90;;;;;;5027134;28;20103;-56
2023/08/30 07:56:30;;;;;;;7.38;2.80;;;14.70;99.90;;;;;;5027129;28;20136;-56
2023/08/30 07:58:57;;;;;;;13.18;3.55;;;14.90;99.90;;;;;;5033384;28;20496;-53
2023/08/30 08:01:23;;;;;;;8.15;2.95;;;15.00;99.90;;;;;;5033229;28;20480;-55
2023/08/30 08:03:50;;;;;;;13.30;3.45;;;15.10;99.90;;;;;;5032101;28;20430;-58
2023/08/30 08:06:33;;;;;;;12.80;2.83;;;15.00;99.90;;;;;;5033274;28;20475;-52
2023/08/30 08:09:00;;;;;;;14.32;2.95;;;15.10;99.90;;;;;;5033167;28;20042;-56
2023/08/30 08:11:27;;;;;;;8.95;2.58;;;15.10;99.90;;;;;;5033286;28;20530;-52
2023/08/30 08:13:54;;;;;;;12.73;3.35;;;15.20;99.90;;;;;;5032042;28;20447;-57
2023/08/30 08:16:21;;;;;;;9.10;2.90;;;15.40;99.90;;;;;;5033057;28;20073;-59
2023/08/30 08:18:48;;;;;;;12.32;3.40;;;15.40;99.90;;;;;;5033288;28;20504;-54
2023/08/30 08:21:14;;;;;;;11.48;3.30;;;15.50;99.90;;;;;;5032093;28;20481;-58
2023/08/30 08:23:41;;;;;;;10.20;3.17;;;15.60;99.90;;;;;;5032887;28;20037;-54
2023/08/30 08:26:08;;;;;;;10.95;3.00;;;15.50;99.90;;;;;;5029028;28;20041;-56
2023/08/30 08:28:35;;;;;;;12.73;3.10;;;15.50;99.90;;;;;;5032019;28;20041;-54
2023/08/30 08:31:02;;;;;;;6.45;2.25;;;15.60;99.90;;;;;;5032670;28;20037;-56
2023/08/30 08:33:29;;;;;;;14.70;3.70;;;15.50;99.90;;;;;;5032707;28;20057;-54
2023/08/30 08:35:56;;;;;;;10.70;2.72;;;15.50;99.90;;;;;;5025832;28;20037;-54
2023/08/30 08:38:23;;;;;;;11.35;3.35;;;15.50;99.90;;;;;;5032207;28;20155;-59
2023/08/30 08:40:50;;;;;;;14.27;3.10;;;15.70;99.90;;;;;;5022425;28;20137;-54
2023/08/30 08:43:17;;;;;;;11.32;3.25;;;15.70;99.90;;;;;;5032384;28;20069;-52
2023/08/30 08:45:44;;;;;;;12.52;2.80;;;15.70;99.90;;;;;;5032518;28;20112;-53
2023/08/30 08:48:10;;;;;;;11.10;3.63;;;15.80;99.90;;;;;;5032464;28;20403;-59
2023/08/30 08:50:38;;;;;;;10.38;3.63;;;16.00;99.90;;;;;;5021111;28;20050;-55
2023/08/30 08:53:07;;;;;;;14.82;3.47;;;16.20;99.90;;;;;;5031824;28;20127;-52
2023/08/30 08:55:34;;;;;;;17.10;3.03;;;16.30;99.90;;;;;;5022474;28;20103;-55
2023/08/30 08:58:01;;;;;;;8.57;2.78;;;16.50;99.90;;;;;;5030723;28;20045;-54
2023/08/30 09:00:28;;;;;;;10.02;3.03;;;16.50;99.90;;;;;;5030914;28;20045;-52
2023/08/30 09:02:54;;;;;;;7.93;2.63;;;16.50;99.90;;;;;;5032262;28;20037;-52
2023/08/30 09:05:22;;;;;;;13.18;3.28;;;16.40;99.90;;;;;;5032429;28;20038;-54
2023/08/30 09:07:53;;;;;;;10.18;3.03;;;16.40;99.90;;;;;;5032622;28;20457;-51
2023/08/30 09:10:20;;;;;;;8.70;3.08;;;16.50;99.90;;;;;;5032522;28;20038;-54
2023/08/30 09:12:47;;;;;;;8.90;3.10;;;16.30;99.90;;;;;;5032254;28;20041;-53
2023/08/30 09:15:15;;;;;;;8.35;2.83;;;16.10;99.90;;;;;;5031332;28;20037;-56
2023/08/30 09:17:44;;;;;;;10.93;2.92;;;16.10;99.90;;;;;;5019664;28;20516;-54
2023/08/30 09:20:10;;;;;;;12.00;2.95;;;16.00;99.90;;;;;;5030252;28;20042;-59
2023/08/30 09:22:37;;;;;;;11.32;2.90;;;16.10;99.90;;;;;;5031998;28;20124;-52
2023/08/30 09:25:04;;;;;;;11.90;3.40;;;16.10;99.90;;;;;;5032449;28;20059;-53
2023/08/30 09:27:31;;;;;;;11.00;2.75;;;16.00;99.90;;;;;;5032304;28;20056;-56
2023/08/30 09:29:58;;;;;;;9.07;2.85;;;16.00;99.90;;;;;;5032409;28;20072;-51
2023/08/30 09:32:24;;;;;;;7.97;2.42;;;16.00;99.90;;;;;;5032280;28;20129;-56
2023/08/30 09:34:52;;;;;;;7.65;2.50;;;16.00;99.90;;;;;;5032280;28;20106;-52
2023/08/30 09:37:19;;;;;;;7.18;2.20;;;16.10;99.90;;;;;;5031122;28;20073;-58
2023/08/30 09:39:46;;;;;;;9.00;2.70;;;16.10;99.90;;;;;;5030684;28;20084;-56
2023/08/30 09:42:12;;;;;;;8.65;2.67;;;16.10;99.90;;;;;;5022294;28;20045;-57
2023/08/30 09:44:42;;;;;;;10.30;2.72;;;16.20;99.90;;;;;;5030754;28;20038;-52
2023/08/30 09:47:09;;;;;;;9.85;2.33;;;16.40;99.90;;;;;;5032051;28;20073;-57
2023/08/30 09:49:36;;;;;;;9.38;2.63;;;16.40;99.90;;;;;;5031722;28;20454;-53
2023/08/30 09:52:06;;;;;;;9.07;2.40;;;16.40;99.90;;;;;;5031023;28;20042;-52
2023/08/30 09:54:33;;;;;;;9.30;2.58;;;16.40;99.90;;;;;;5031596;28;20124;-57
2023/08/30 09:57:06;;;;;;;10.30;2.63;;;16.30;99.90;;;;;;5028982;28;20140;-50
2023/08/30 09:59:32;;;;;;;9.40;2.63;;;16.50;99.90;;;;;;5033969;28;20103;-56
2023/08/30 10:02:02;;;;;;;7.30;2.03;;;16.70;99.90;;;;;;5035100;28;20045;-56
2023/08/30 10:04:29;;;;;;;10.68;2.67;;;16.80;99.90;;;;;;5034984;28;20069;-55
2023/08/30 10:06:57;;;;;;;7.70;2.35;;;16.90;99.90;;;;;;5034795;28;20049;-55
2023/08/30 10:09:24;;;;;;;11.27;2.63;;;17.00;99.90;;;;;;5034189;28;20432;-53
2023/08/30 10:11:51;;;;;;;7.20;2.08;;;17.10;99.90;;;;;;5034690;28;20049;-53
2023/08/30 10:14:18;;;;;;;8.65;1.90;;;17.30;99.90;;;;;;5032981;28;20045;-53
2023/08/30 10:16:45;;;;;;;5.53;2.05;;;17.50;99.90;;;;;;5034393;28;20049;-52
2023/08/30 10:19:12;;;;;;;8.32;1.92;;;17.50;99.90;;;;;;5034484;28;20481;-54
2023/08/30 10:21:39;;;;;;;5.68;1.73;;;17.60;99.90;;;;;;5033450;28;20112;-53
2023/08/30 10:24:05;;;;;;;6.25;1.70;;;17.50;99.80;;;;;;5033809;28;20124;-54
2023/08/30 10:26:52;;;;;;;5.65;1.50;;;17.50;99.90;;;;;;5033144;28;20129;-49
2023/08/30 10:29:19;;;;;;;4.07;1.63;;;17.60;99.90;;;;;;5034383;28;20038;-53
2023/08/30 10:31:46;;;;;;;7.00;1.67;;;17.90;99.00;;;;;;5034803;28;20041;-59
2023/08/30 10:34:12;;;;;;;5.75;1.30;;;18.00;98.30;;;;;;5034660;28;20041;-50
2023/08/30 10:36:39;;;;;;;4.55;1.75;;;18.20;99.10;;;;;;5033184;28;20122;-54
2023/08/30 10:39:06;;;;;;;5.55;1.55;;;18.30;98.80;;;;;;5034258;28;20041;-51
2023/08/30 10:41:33;;;;;;;6.38;1.50;;;18.20;98.60;;;;;;5032467;28;20042;-54
2023/08/30 10:44:00;;;;;;;8.35;1.70;;;18.20;98.50;;;;;;5033513;28;20047;-49
2023/08/30 10:46:28;;;;;;;5.47;2.00;;;18.00;98.60;;;;;;5034460;28;20037;-57
2023/08/30 10:48:56;;;;;;;9.27;2.80;;;18.00;99.20;;;;;;5034290;28;20033;-53
2023/08/30 10:51:23;;;;;;;8.40;1.85;;;18.00;98.70;;;;;;5033985;28;20132;-54
2023/08/30 10:53:51;;;;;;;5.20;1.40;;;17.90;98.20;;;;;;5034196;28;20473;-56
2023/08/30 10:56:17;;;;;;;5.65;1.30;;;17.80;97.90;;;;;;5034780;28;20076;-53
2023/08/30 10:58:44;;;;;;;4.75;1.50;;;17.80;98.30;;;;;;5038226;28;20045;-53
2023/08/30 11:01:15;;;;;;;6.18;2.60;;;17.80;98.50;;;;;;5033977;28;20041;-53
2023/08/30 11:03:42;;;;;;;9.15;2.60;;;17.90;98.90;;;;;;5035160;28;20048;-53
2023/08/30 11:06:09;;;;;;;6.45;2.08;;;18.10;98.70;;;;;;5033810;28;20038;-51
2023/08/30 11:08:35;;;;;;;5.63;2.15;;;18.30;98.00;;;;;;5034126;28;20053;-53
2023/08/30 11:11:03;;;;;;;7.97;1.70;;;18.10;97.60;;;;;;5033453;28;20042;-54
2023/08/30 11:13:29;;;;;;;4.28;1.60;;;18.10;98.10;;;;;;5032342;28;20045;-54
2023/08/30 11:15:56;;;;;;;6.43;1.38;;;18.20;98.30;;;;;;5033681;28;20037;-50
2023/08/30 11:18:23;;;;;;;7.13;1.48;;;18.20;97.30;;;;;;5031183;28;20069;-52
2023/08/30 11:20:50;;;;;;;3.63;1.52;;;18.40;96.50;;;;;;5033591;28;20052;-52
2023/08/30 11:23:16;;;;;;;4.72;1.45;;;18.60;96.80;;;;;;5033575;28;20048;-52
2023/08/30 11:25:43;;;;;;;5.15;1.40;;;18.70;96.90;;;;;;5033595;28;20397;-49
2023/08/30 11:28:10;;;;;;;4.45;1.55;;;18.80;96.80;;;;;;5030212;28;20046;-52
2023/08/30 11:30:37;;;;;;;4.43;1.20;;;18.90;96.70;;;;;;5031717;28;20037;-53
2023/08/30 11:33:04;;;;;;;4.95;1.35;;;19.00;96.60;;;;;;5033420;28;20048;-55
2023/08/30 11:35:30;;;;;;;5.05;1.50;;;19.00;96.40;;;;;;5033980;28;20126;-47
2023/08/30 11:37:58;;;;;;;4.25;1.50;;;19.00;96.30;;;;;;5033973;28;20049;-48
2023/08/30 11:40:24;;;;;;;3.22;1.30;;;18.90;95.80;;;;;;5033193;28;20046;-53
2023/08/30 11:42:51;;;;;;;5.70;1.48;;;18.90;96.30;;;;;;5033692;28;20037;-50
2023/08/30 11:45:18;;;;;;;5.00;1.42;;;19.00;96.30;;;;;;5033865;28;20056;-49
2023/08/30 11:47:45;;;;;;;5.30;1.48;;;19.10;96.30;;;;;;5033537;28;20072;-50
2023/08/30 11:50:12;;;;;;;4.35;1.60;;;19.10;95.80;;;;;;5033773;28;20100;-55
2023/08/30 11:52:39;;;;;;;3.42;1.23;;;19.10;95.70;;;;;;5032432;28;20054;-54
2023/08/30 11:55:07;;;;;;;5.20;1.40;;;19.30;96.20;;;;;;5033363;28;20045;-54
2023/08/30 11:57:37;;;;;;;3.78;1.25;;;19.50;95.70;;;;;;5033421;28;20041;-51
2023/08/30 12:00:03;;;;;;;6.03;1.27;;;19.50;95.30;;;;;;5032403;28;20057;-51
2023/08/30 12:02:31;;;;;;;7.57;2.20;;;19.40;94.70;;;;;;5033382;28;20052;-52
2023/08/30 12:04:59;;;;;;;4.90;1.55;;;19.30;94.90;;;;;;5027682;28;20046;-50
2023/08/30 12:07:26;;;;;;;8.77;6.47;;;19.40;95.50;;;;;;5030560;28;20060;-53
2023/08/30 12:09:53;;;;;;;6.25;2.60;;;19.50;95.40;;;;;;5032503;28;20047;-55
2023/08/30 12:12:20;;;;;;;10.50;2.03;;;19.30;94.70;;;;;;5033118;28;20051;-50
2023/08/30 12:14:47;;;;;;;5.68;1.50;;;19.00;95.40;;;;;;5032198;28;20069;-55
2023/08/30 12:17:14;;;;;;;7.82;1.73;;;19.00;95.80;;;;;;5032961;28;20499;-55
2023/08/30 12:19:41;;;;;;;9.30;1.85;;;19.00;95.80;;;;;;5031457;28;20069;-49
2023/08/30 12:22:07;;;;;;;4.00;1.38;;;19.00;95.30;;;;;;5032495;28;20045;-54
2023/08/30 12:24:34;;;;;;;3.97;1.30;;;19.10;95.20;;;;;;5032754;28;20033;-58
2023/08/30 12:27:01;;;;;;;3.50;1.15;;;19.20;95.10;;;;;;5029840;28;20041;-52
2023/08/30 12:29:28;;;;;;;5.30;1.58;;;19.00;94.20;;;;;;5023857;28;20038;-51
2023/08/30 12:31:54;;;;;;;2.40;1.23;;;19.00;95.10;;;;;;5028494;28;20506;-51
2023/08/30 12:34:21;;;;;;;5.18;1.60;;;19.00;94.70;;;;;;5033006;28;20491;-51
2023/08/30 12:36:48;;;;;;;4.07;1.00;;;19.00;94.80;;;;;;5032789;28;20041;-53
2023/08/30 12:39:15;;;;;;;5.78;1.48;;;19.00;94.70;;;;;;5032944;28;20461;-56
2023/08/30 12:41:42;;;;;;;2.95;1.10;;;19.20;94.30;;;;;;5032790;28;20037;-54
2023/08/30 12:44:09;;;;;;;5.28;1.23;;;19.20;93.80;;;;;;5032629;28;20129;-57